createdAt,value
2018-07-27T00:02:04.716Z,92.90
2018-07-27T00:04:34.236Z,93.30
2018-07-27T00:07:03.869Z,93.70
2018-07-27T00:09:33.434Z,93.30
2018-07-27T00:12:03.039Z,93.70
2018-07-27T00:14:32.528Z,93.10
2018-07-27T00:17:02.074Z,93.80
2018-07-27T00:19:31.592Z,93.20
2018-07-27T00:24:30.204Z,94.10
2018-07-27T00:27:00.178Z,94.30
2018-07-27T00:29:29.698Z,94.10
2018-07-27T00:31:59.293Z,94.60
2018-07-27T00:34:28.779Z,95.30
2018-07-27T00:36:58.262Z,94.90
2018-07-27T00:39:27.796Z,94.90
2018-07-27T00:41:57.430Z,95.50
2018-07-27T00:44:27.017Z,95.10
2018-07-27T00:46:56.542Z,95.20
2018-07-27T00:49:26.402Z,95.30
2018-07-27T00:51:55.915Z,95.40
2018-07-27T00:54:25.437Z,95.80
2018-07-27T00:56:54.962Z,95.90
2018-07-27T00:59:24.604Z,96.00
2018-07-27T01:01:54.112Z,95.90
2018-07-27T01:04:23.653Z,96.30
2018-07-27T01:06:53.156Z,96.80
2018-07-27T01:09:22.686Z,97.00
2018-07-27T01:11:52.560Z,96.90
2018-07-27T01:14:22.080Z,96.80
2018-07-27T01:16:51.654Z,98.20
2018-07-27T01:19:21.196Z,98.50
2018-07-27T01:21:50.785Z,98.70
2018-07-27T01:24:20.349Z,98.90
2018-07-27T01:26:49.930Z,99.20
2018-07-27T01:29:19.827Z,99.10
2018-07-27T01:31:49.403Z,99.40
2018-07-27T01:34:18.941Z,99.80
2018-07-27T01:36:52.516Z,99.20
2018-07-27T01:39:22.040Z,98.90
2018-07-27T01:41:51.509Z,98.80
2018-07-27T01:44:21.063Z,99.10
2018-07-27T01:46:50.589Z,98.40
2018-07-27T01:51:49.098Z,98.60
2018-07-27T01:54:18.662Z,98.80
2018-07-27T01:56:48.177Z,99.50
2018-07-27T01:59:17.705Z,99.30
2018-07-27T02:01:47.595Z,98.60
2018-07-27T02:04:17.098Z,99.40
2018-07-27T02:06:46.626Z,99.50
2018-07-27T02:09:16.209Z,99.50
2018-07-27T02:11:45.727Z,99.90
2018-07-27T02:14:15.242Z,99.90
2018-07-27T02:16:44.781Z,99.90
2018-07-27T02:19:14.262Z,99.90
2018-07-27T02:21:43.755Z,99.90
2018-07-27T02:24:13.302Z,99.90
2018-07-27T02:26:42.830Z,99.90
2018-07-27T02:29:12.370Z,99.90
2018-07-27T02:31:41.860Z,99.90
2018-07-27T02:34:11.423Z,99.90
2018-07-27T02:36:40.962Z,99.90
2018-07-27T02:39:11.427Z,99.90
2018-07-27T02:41:41.282Z,99.90
2018-07-27T02:44:10.883Z,99.90
2018-07-27T02:46:40.371Z,99.90
2018-07-27T02:49:09.863Z,99.90
2018-07-27T02:51:39.401Z,99.90
2018-07-27T02:54:08.896Z,99.90
2018-07-27T02:56:38.374Z,99.90
2018-07-27T02:59:07.895Z,99.90
2018-07-27T03:01:37.417Z,99.90
2018-07-27T03:04:07.135Z,99.90
2018-07-27T03:06:36.606Z,99.90
2018-07-27T03:09:08.803Z,99.90
2018-07-27T03:11:38.287Z,99.90
2018-07-27T03:14:07.890Z,99.90
2018-07-27T03:16:37.476Z,99.90
2018-07-27T03:19:07.024Z,99.90
2018-07-27T03:21:36.601Z,99.90
2018-07-27T03:24:06.121Z,99.90
2018-07-27T03:26:35.630Z,99.90
2018-07-27T03:29:05.216Z,99.90
2018-07-27T03:31:34.740Z,99.90
2018-07-27T03:34:04.255Z,99.90
2018-07-27T03:36:33.725Z,99.90
2018-07-27T03:39:03.803Z,99.90
2018-07-27T03:41:33.301Z,99.90
2018-07-27T03:44:03.011Z,99.90
2018-07-27T03:46:32.523Z,99.90
2018-07-27T03:49:02.082Z,99.90
2018-07-27T03:51:31.603Z,99.90
2018-07-27T03:54:01.168Z,99.90
2018-07-27T03:56:30.684Z,99.90
2018-07-27T03:59:00.255Z,99.90
2018-07-27T04:01:29.758Z,99.90
2018-07-27T04:03:59.282Z,99.90
2018-07-27T04:06:28.816Z,99.90
2018-07-27T04:08:58.386Z,99.90
2018-07-27T04:11:27.897Z,99.90
2018-07-27T04:13:57.923Z,99.90
2018-07-27T04:16:27.480Z,99.90
2018-07-27T04:18:57.019Z,99.90
2018-07-27T04:21:26.627Z,99.90
2018-07-27T04:23:56.170Z,99.90
2018-07-27T04:26:25.709Z,99.90
2018-07-27T04:28:55.221Z,99.90
2018-07-27T04:31:24.760Z,99.90
2018-07-27T04:33:54.252Z,99.90
2018-07-27T04:36:23.812Z,99.90
2018-07-27T04:38:53.281Z,99.90
2018-07-27T04:41:22.859Z,99.90
2018-07-27T04:43:52.652Z,99.90
2018-07-27T04:46:22.208Z,99.90
2018-07-27T04:48:51.790Z,99.90
2018-07-27T04:51:21.330Z,99.90
2018-07-27T04:53:50.860Z,99.90
2018-07-27T04:56:20.414Z,99.90
2018-07-27T04:58:49.923Z,99.90
2018-07-27T05:01:19.520Z,99.90
2018-07-27T05:03:49.091Z,99.90
2018-07-27T05:06:18.600Z,99.90
2018-07-27T05:08:53.418Z,99.90
2018-07-27T05:11:22.969Z,99.90
2018-07-27T05:13:52.867Z,99.90
2018-07-27T05:16:22.482Z,99.90
2018-07-27T05:18:52.017Z,99.90
2018-07-27T05:21:21.584Z,99.90
2018-07-27T05:23:51.126Z,99.90
2018-07-27T05:26:20.685Z,99.90
2018-07-27T05:28:50.213Z,99.90
2018-07-27T05:31:19.839Z,99.90
2018-07-27T05:33:49.370Z,99.90
2018-07-27T05:36:18.894Z,99.90
2018-07-27T05:38:48.406Z,99.90
2018-07-27T05:41:18.062Z,99.90
2018-07-27T05:43:47.540Z,99.90
2018-07-27T05:46:17.011Z,99.90
2018-07-27T05:48:46.780Z,99.90
2018-07-27T05:51:16.349Z,99.90
2018-07-27T05:53:45.903Z,99.90
2018-07-27T06:01:13.452Z,99.90
2018-07-27T06:03:43.009Z,99.90
2018-07-27T06:06:12.529Z,99.90
2018-07-27T06:08:42.129Z,99.90
2018-07-27T06:11:11.760Z,99.90
2018-07-27T06:13:41.369Z,99.90
2018-07-27T06:16:11.161Z,99.20
2018-07-27T06:18:40.692Z,99.00
2018-07-27T06:21:10.216Z,98.80
2018-07-27T06:23:39.744Z,99.20
2018-07-27T06:26:09.621Z,98.00
2018-07-27T06:28:39.088Z,97.50
2018-07-27T06:31:08.637Z,98.30
2018-07-27T06:33:38.203Z,97.00
2018-07-27T06:36:07.751Z,96.50
2018-07-27T06:38:37.247Z,98.10
2018-07-27T06:41:06.856Z,97.40
2018-07-27T06:43:36.436Z,97.20
2018-07-27T06:46:06.174Z,95.60
2018-07-27T06:48:35.741Z,95.70
2018-07-27T06:51:05.310Z,95.50
2018-07-27T06:53:34.861Z,96.00
2018-07-27T06:56:04.440Z,94.80
2018-07-27T06:58:33.981Z,94.30
2018-07-27T07:01:03.444Z,94.20
2018-07-27T07:03:33.049Z,94.10
2018-07-27T07:08:31.554Z,93.20
2018-07-27T07:11:01.048Z,94.20
2018-07-27T07:13:30.533Z,94.00
2018-07-27T07:16:00.115Z,92.70
2018-07-27T07:18:29.651Z,93.00
2018-07-27T07:20:59.191Z,93.50
2018-07-27T07:23:28.694Z,93.10
2018-07-27T07:25:58.557Z,93.40
2018-07-27T07:28:27.785Z,91.70
2018-07-27T07:30:57.286Z,91.30
2018-07-27T07:33:26.827Z,91.60
2018-07-27T07:35:56.832Z,92.10
2018-07-27T07:38:26.339Z,90.90
2018-07-27T07:40:55.867Z,91.30
2018-07-27T07:43:25.378Z,90.60
2018-07-27T07:45:54.875Z,90.60
2018-07-27T07:48:24.383Z,90.10
2018-07-27T07:50:53.921Z,90.50
2018-07-27T07:53:23.431Z,90.40
2018-07-27T07:55:52.955Z,90.40
2018-07-27T07:58:22.495Z,89.10
2018-07-27T08:00:52.082Z,89.80
2018-07-27T08:03:21.592Z,90.80
2018-07-27T08:05:51.135Z,88.40
2018-07-27T08:08:20.680Z,88.60
2018-07-27T08:10:50.414Z,88.00
2018-07-27T08:13:19.958Z,87.60
2018-07-27T08:15:50.042Z,86.60
2018-07-27T08:18:19.835Z,89.20
2018-07-27T08:20:49.286Z,89.10
2018-07-27T08:23:18.791Z,86.00
2018-07-27T08:27:00.979Z,86.20
2018-07-27T08:29:33.167Z,84.30
2018-07-27T08:32:03.491Z,81.40
2018-07-27T08:34:33.656Z,82.60
2018-07-27T08:37:04.173Z,81.80
2018-07-27T08:39:36.042Z,79.90
2018-07-27T08:42:05.622Z,78.30
2018-07-27T08:44:36.348Z,77.80
2018-07-27T08:47:06.406Z,78.20
2018-07-27T08:49:39.864Z,76.60
2018-07-27T08:52:11.747Z,74.00
2018-07-27T08:54:41.259Z,73.20
2018-07-27T08:57:11.148Z,74.80
2018-07-27T08:59:40.721Z,73.80
2018-07-27T09:02:10.382Z,72.80
2018-07-27T09:04:39.916Z,71.00
2018-07-27T09:07:09.456Z,72.20
2018-07-27T09:09:40.033Z,70.60
2018-07-27T09:12:09.620Z,66.80
2018-07-27T09:14:39.147Z,71.40
2018-07-27T09:17:08.628Z,68.70
2018-07-27T09:19:39.747Z,68.60
2018-07-27T09:22:10.076Z,66.90
2018-07-27T09:24:39.743Z,65.80
2018-07-27T09:27:10.070Z,65.50
2018-07-27T09:29:40.087Z,67.00
2018-07-27T09:32:09.799Z,66.20
2018-07-27T09:34:39.371Z,65.60
2018-07-27T09:37:09.968Z,67.00
2018-07-27T09:39:48.327Z,67.20
2018-07-27T09:42:26.562Z,67.00
2018-07-27T09:44:56.403Z,66.80
2018-07-27T09:47:27.449Z,65.80
2018-07-27T09:49:57.356Z,68.00
2018-07-27T09:52:26.933Z,65.90
2018-07-27T09:54:56.558Z,66.90
2018-07-27T09:57:26.223Z,66.20
2018-07-27T09:59:56.061Z,63.50
2018-07-27T10:02:25.619Z,64.30
2018-07-27T10:04:55.380Z,63.40
2018-07-27T10:07:25.168Z,64.40
2018-07-27T10:09:54.736Z,63.10
2018-07-27T10:12:24.606Z,62.20
2018-07-27T10:14:54.236Z,62.40
2018-07-27T10:17:23.850Z,61.50
2018-07-27T10:19:53.459Z,59.80
2018-07-27T10:22:23.061Z,56.80
2018-07-27T10:24:52.653Z,59.50
2018-07-27T10:27:22.229Z,55.90
2018-07-27T10:29:51.779Z,56.10
2018-07-27T10:32:21.415Z,53.60
2018-07-27T10:34:50.934Z,53.10
2018-07-27T10:37:20.690Z,55.80
2018-07-27T10:39:50.263Z,53.70
2018-07-27T10:42:20.079Z,52.70
2018-07-27T10:44:49.594Z,53.80
2018-07-27T10:47:20.016Z,53.00
2018-07-27T10:49:49.592Z,54.10
2018-07-27T10:52:19.329Z,53.80
2018-07-27T10:54:48.954Z,51.00
2018-07-27T10:57:18.545Z,51.40
2018-07-27T10:59:50.318Z,50.90
2018-07-27T11:04:49.495Z,49.00
2018-07-27T11:07:19.063Z,50.90
2018-07-27T11:09:48.749Z,50.40
2018-07-27T11:12:18.226Z,49.40
2018-07-27T11:14:47.970Z,48.20
2018-07-27T11:17:17.610Z,49.10
2018-07-27T11:19:47.114Z,48.40
2018-07-27T11:22:16.661Z,50.60
2018-07-27T11:24:46.161Z,50.30
2018-07-27T11:27:15.664Z,49.90
2018-07-27T11:29:45.162Z,49.60
2018-07-27T11:32:14.636Z,50.10
2018-07-27T11:34:44.237Z,50.30
2018-07-27T11:37:13.742Z,51.80
2018-07-27T11:39:43.289Z,52.20
2018-07-27T11:42:12.864Z,50.80
2018-07-27T11:44:42.385Z,49.10
2018-07-27T11:47:11.943Z,49.30
2018-07-27T11:49:41.850Z,47.90
2018-07-27T11:52:11.370Z,48.60
2018-07-27T11:54:41.256Z,47.70
2018-07-27T11:57:10.831Z,47.80
2018-07-27T11:59:40.708Z,49.70
2018-07-27T12:02:10.192Z,47.70
2018-07-27T12:04:39.740Z,48.20
2018-07-27T12:07:09.241Z,48.90
2018-07-27T12:09:38.761Z,49.50
2018-07-27T12:12:08.319Z,47.70
2018-07-27T12:14:38.076Z,48.90
2018-07-27T12:17:07.437Z,47.40
2018-07-27T12:19:36.915Z,46.60
2018-07-27T12:22:06.522Z,46.40
2018-07-27T12:24:37.187Z,47.20
2018-07-27T12:27:06.707Z,46.20
2018-07-27T12:29:36.377Z,46.40
2018-07-27T12:32:05.882Z,48.30
2018-07-27T12:34:35.360Z,47.70
2018-07-27T12:37:04.966Z,49.80
2018-07-27T12:39:35.034Z,48.70
2018-07-27T12:42:06.044Z,49.60
2018-07-27T12:44:35.568Z,48.90
2018-07-27T12:47:05.183Z,49.40
2018-07-27T12:49:34.768Z,48.60
2018-07-27T12:52:04.283Z,49.30
2018-07-27T12:54:33.786Z,47.90
2018-07-27T12:57:03.366Z,48.40
2018-07-27T12:59:34.433Z,48.50
2018-07-27T13:02:03.993Z,49.00
2018-07-27T13:07:03.575Z,49.70
2018-07-27T13:09:33.161Z,48.70
2018-07-27T13:12:02.726Z,48.70
2018-07-27T13:17:01.741Z,48.90
2018-07-27T13:19:31.237Z,49.70
2018-07-27T13:22:00.815Z,49.90
2018-07-27T13:26:59.843Z,49.70
2018-07-27T13:29:29.331Z,49.30
2018-07-27T13:31:59.866Z,50.20
2018-07-27T13:34:33.469Z,48.80
2018-07-27T13:37:03.496Z,48.50
2018-07-27T13:39:33.832Z,48.40
2018-07-27T13:42:04.457Z,49.20
2018-07-27T13:44:35.048Z,49.70
2018-07-27T13:47:05.539Z,49.50
2018-07-27T13:49:37.163Z,49.30
2018-07-27T13:52:06.752Z,50.00
2018-07-27T13:54:36.685Z,50.80
2018-07-27T13:57:06.231Z,50.00
2018-07-27T13:59:35.799Z,50.30
2018-07-27T14:02:05.794Z,48.90
2018-07-27T14:04:35.308Z,51.60
2018-07-27T14:07:06.362Z,49.60
2018-07-27T14:09:35.837Z,50.60
2018-07-27T14:12:05.464Z,49.70
2018-07-27T14:14:34.943Z,48.90
2018-07-27T14:17:04.918Z,48.30
2018-07-27T14:19:34.391Z,49.40
2018-07-27T14:22:03.978Z,49.90
2018-07-27T14:24:35.732Z,49.40
2018-07-27T14:27:06.714Z,50.10
2018-07-27T14:29:36.271Z,51.10
2018-07-27T14:32:05.840Z,51.40
2018-07-27T14:34:35.378Z,51.10
2018-07-27T14:37:06.919Z,52.10
2018-07-27T14:39:36.770Z,51.60
2018-07-27T14:42:06.300Z,50.00
2018-07-27T14:44:35.883Z,52.00
2018-07-27T14:47:05.427Z,50.30
2018-07-27T14:49:35.200Z,50.60
2018-07-27T14:52:04.747Z,50.80
2018-07-27T14:54:34.264Z,49.70
2018-07-27T14:57:03.799Z,50.60
2018-07-27T14:59:33.285Z,51.20
2018-07-27T15:02:02.770Z,50.40
2018-07-27T15:04:32.337Z,51.30
2018-07-27T15:07:02.287Z,49.70
2018-07-27T15:09:32.047Z,50.70
2018-07-27T15:12:01.596Z,49.70
2018-07-27T15:14:31.142Z,49.90
2018-07-27T15:17:00.711Z,50.20
2018-07-27T15:19:47.353Z,49.10
2018-07-27T15:22:18.796Z,51.20
2018-07-27T15:24:51.042Z,49.50
2018-07-27T15:27:20.568Z,50.20
2018-07-27T15:29:50.079Z,49.60
2018-07-27T15:32:19.588Z,50.40
2018-07-27T15:34:49.114Z,50.50
2018-07-27T15:37:18.635Z,49.10
2018-07-27T15:39:48.291Z,48.40
2018-07-27T15:42:17.768Z,48.70
2018-07-27T15:44:47.283Z,50.40
2018-07-27T15:47:16.759Z,49.80
2018-07-27T15:49:46.282Z,49.20
2018-07-27T15:52:15.866Z,49.60
2018-07-27T15:54:45.625Z,50.00
2018-07-27T15:57:15.134Z,48.70
2018-07-27T15:59:44.878Z,48.50
2018-07-27T16:02:14.401Z,50.20
2018-07-27T16:04:44.067Z,50.00
2018-07-27T16:07:29.364Z,49.80
2018-07-27T16:10:13.274Z,48.60
2018-07-27T16:12:52.825Z,47.90
2018-07-27T16:15:30.576Z,47.50
2018-07-27T16:18:04.974Z,47.10
2018-07-27T16:20:41.248Z,47.40
2018-07-27T16:23:10.721Z,47.70
2018-07-27T16:25:40.216Z,47.10
2018-07-27T16:28:09.784Z,47.30
2018-07-27T16:30:39.344Z,46.50
2018-07-27T16:33:09.752Z,47.80
2018-07-27T16:35:39.909Z,46.70
2018-07-27T16:38:10.159Z,46.20
2018-07-27T16:40:39.731Z,46.70
2018-07-27T16:43:09.249Z,47.50
2018-07-27T16:45:38.818Z,45.80
2018-07-27T16:48:08.373Z,45.40
2018-07-27T16:50:37.893Z,45.10
2018-07-27T16:53:07.388Z,47.50
2018-07-27T16:55:36.897Z,45.30
2018-07-27T16:58:06.513Z,45.60
2018-07-27T17:00:36.050Z,45.00
2018-07-27T17:03:05.630Z,45.70
2018-07-27T17:05:35.191Z,46.20
2018-07-27T17:08:04.883Z,48.60
2018-07-27T17:10:35.027Z,46.20
2018-07-27T17:13:04.541Z,47.10
2018-07-27T17:15:34.045Z,47.80
2018-07-27T17:18:03.560Z,46.90
2018-07-27T17:20:33.107Z,46.80
2018-07-27T17:23:02.703Z,47.50
2018-07-27T17:25:32.253Z,46.30
2018-07-27T17:28:01.734Z,46.50
2018-07-27T17:30:31.216Z,46.90
2018-07-27T17:33:00.757Z,48.30
2018-07-27T17:35:31.807Z,48.10
2018-07-27T17:38:01.331Z,48.70
2018-07-27T17:40:30.905Z,49.70
2018-07-27T17:43:00.477Z,49.50
2018-07-27T17:45:29.970Z,48.70
2018-07-27T17:47:59.548Z,49.70
2018-07-27T17:50:29.107Z,51.00
2018-07-27T17:52:59.636Z,51.30
2018-07-27T17:55:29.138Z,50.50
2018-07-27T17:57:58.681Z,52.00
2018-07-27T18:00:28.229Z,54.10
2018-07-27T18:05:26.770Z,50.90
2018-07-27T18:07:56.474Z,53.10
2018-07-27T18:10:25.899Z,52.80
2018-07-27T18:12:55.438Z,52.70
2018-07-27T18:15:24.972Z,53.00
2018-07-27T18:17:54.499Z,53.30
2018-07-27T18:20:24.193Z,55.60
2018-07-27T18:25:22.845Z,55.40
2018-07-27T18:27:52.356Z,54.90
2018-07-27T18:32:53.752Z,56.40
2018-07-27T18:35:23.268Z,56.90
2018-07-27T18:37:52.812Z,59.60
2018-07-27T18:40:22.367Z,58.70
2018-07-27T18:42:51.896Z,61.40
2018-07-27T18:45:21.391Z,60.60
2018-07-27T18:47:50.948Z,63.10
2018-07-27T18:50:20.487Z,60.50
2018-07-27T18:52:49.978Z,58.00
2018-07-27T18:55:19.493Z,61.60
2018-07-27T18:57:48.997Z,62.90
2018-07-27T19:00:18.921Z,64.50
2018-07-27T19:02:48.396Z,61.50
2018-07-27T19:05:17.921Z,64.50
2018-07-27T19:07:47.451Z,65.60
2018-07-27T19:10:17.020Z,62.40
2018-07-27T19:12:46.606Z,63.50
2018-07-27T19:17:45.150Z,63.40
2018-07-27T19:20:14.665Z,63.20
2018-07-27T19:22:44.276Z,64.90
2018-07-27T19:25:13.830Z,64.00
2018-07-27T19:27:43.345Z,64.60
2018-07-27T19:30:13.389Z,66.30
2018-07-27T19:32:42.957Z,65.20
2018-07-27T19:35:12.673Z,67.50
2018-07-27T19:37:42.249Z,66.00
2018-07-27T19:42:40.787Z,66.10
2018-07-27T19:45:10.458Z,67.60
2018-07-27T19:47:39.983Z,68.40
2018-07-27T19:50:09.711Z,67.30
2018-07-27T19:52:39.223Z,69.70
2018-07-27T19:55:10.166Z,69.00
2018-07-27T19:57:39.676Z,69.80
2018-07-27T20:00:09.292Z,70.70
2018-07-27T20:02:38.803Z,70.80
2018-07-27T20:05:08.339Z,72.40
2018-07-27T20:10:07.262Z,71.20
2018-07-27T20:12:36.780Z,71.70
2018-07-27T20:15:06.992Z,73.10
2018-07-27T20:17:36.738Z,73.40
2018-07-27T20:20:07.563Z,75.30
2018-07-27T20:22:37.133Z,75.30
2018-07-27T20:25:07.528Z,74.80
2018-07-27T20:27:37.017Z,76.60
2018-07-27T20:30:06.922Z,75.90
2018-07-27T20:32:36.451Z,76.90
2018-07-27T20:35:06.028Z,77.70
2018-07-27T20:37:35.680Z,78.90
2018-07-27T20:42:34.649Z,79.00
2018-07-27T20:45:04.769Z,80.60
2018-07-27T20:47:34.325Z,80.60
2018-07-27T20:50:03.991Z,81.00
2018-07-27T20:52:33.481Z,80.80
2018-07-27T20:55:03.020Z,82.60
2018-07-27T20:57:32.607Z,81.80
2018-07-27T21:00:02.060Z,82.40
2018-07-27T21:02:31.604Z,82.10
2018-07-27T21:05:01.121Z,83.10
2018-07-27T21:07:30.695Z,84.10
2018-07-27T21:10:00.245Z,83.30
2018-07-27T21:12:29.760Z,83.90
2018-07-27T21:17:28.280Z,84.60
2018-07-27T21:19:57.886Z,84.40
2018-07-27T21:22:27.424Z,84.10
2018-07-27T21:24:56.985Z,83.90
2018-07-27T21:27:26.452Z,84.10
2018-07-27T21:29:55.998Z,83.10
2018-07-27T21:32:25.975Z,84.10
2018-07-27T21:34:55.477Z,85.30
2018-07-27T21:37:25.605Z,85.50
2018-07-27T21:39:55.177Z,87.50
2018-07-27T21:42:25.682Z,86.80
2018-07-27T21:44:56.137Z,86.70
2018-07-27T21:47:26.625Z,86.70
2018-07-27T21:49:57.006Z,86.30
2018-07-27T21:52:26.608Z,86.40
2018-07-27T21:54:56.106Z,86.60
2018-07-27T21:57:25.637Z,86.70
2018-07-27T21:59:55.224Z,87.50
2018-07-27T22:02:24.746Z,87.70
2018-07-27T22:07:23.279Z,90.00
2018-07-27T22:09:52.848Z,90.50
2018-07-27T22:14:51.806Z,90.10
2018-07-27T22:17:21.304Z,90.50
2018-07-27T22:19:50.768Z,91.00
2018-07-27T22:22:20.329Z,91.80
2018-07-27T22:24:49.899Z,91.50
2018-07-27T22:27:19.397Z,92.00
2018-07-27T22:29:53.075Z,92.00
2018-07-27T22:32:22.612Z,91.70
2018-07-27T22:34:52.137Z,91.70
2018-07-27T22:37:22.072Z,91.80
2018-07-27T22:39:51.605Z,92.90
2018-07-27T22:44:50.096Z,94.70
2018-07-27T22:47:19.618Z,94.90
2018-07-27T22:49:49.087Z,95.20
2018-07-27T22:52:18.918Z,95.40
2018-07-27T22:54:51.779Z,95.30
2018-07-27T22:57:21.539Z,94.80
2018-07-27T22:59:51.028Z,94.30
2018-07-27T23:02:21.429Z,94.70
2018-07-27T23:04:51.409Z,94.80
2018-07-27T23:07:20.985Z,94.80
2018-07-27T23:09:50.473Z,95.70
2018-07-27T23:12:19.946Z,95.50
2018-07-27T23:14:49.500Z,96.00
2018-07-27T23:17:19.009Z,95.40
2018-07-27T23:19:48.483Z,95.40
2018-07-27T23:24:47.043Z,96.50
2018-07-27T23:27:16.588Z,96.00
2018-07-27T23:29:46.104Z,96.50
2018-07-27T23:32:15.671Z,97.60
2018-07-27T23:34:45.182Z,99.90
2018-07-27T23:37:14.734Z,99.90
2018-07-27T23:39:44.331Z,99.90
2018-07-27T23:42:13.851Z,99.90
2018-07-27T23:44:43.355Z,99.90
2018-07-27T23:47:12.933Z,99.50
2018-07-27T23:49:42.434Z,99.90
2018-07-27T23:52:12.001Z,99.90
2018-07-27T23:54:41.518Z,99.90
2018-07-27T23:57:11.081Z,99.90
2018-07-27T23:59:40.618Z,99.90
